createdAt,value
2018-09-23T00:00:17.527Z,4.53
2018-09-23T00:02:52.684Z,6.03
2018-09-23T00:05:42.248Z,4.58
2018-09-23T00:08:16.077Z,8.00
2018-09-23T00:11:08.617Z,4.95
2018-09-23T00:13:42.841Z,4.55
2018-09-23T00:16:11.357Z,5.08
2018-09-23T00:18:39.534Z,4.65
2018-09-23T00:21:07.810Z,4.75
2018-09-23T00:23:35.984Z,5.12
2018-09-23T00:26:04.031Z,6.60
2018-09-23T00:28:32.130Z,6.43
2018-09-23T00:31:00.316Z,4.50
2018-09-23T00:33:28.372Z,5.10
2018-09-23T00:35:56.545Z,5.15
2018-09-23T00:38:24.719Z,7.50
2018-09-23T00:40:52.798Z,7.45
2018-09-23T00:43:20.982Z,7.42
2018-09-23T00:45:49.347Z,7.97
2018-09-23T00:48:17.441Z,7.90
2018-09-23T00:50:45.497Z,7.12
2018-09-23T00:53:13.584Z,8.53
2018-09-23T00:55:41.673Z,8.48
2018-09-23T00:58:09.739Z,10.63
2018-09-23T01:00:37.777Z,7.65
2018-09-23T01:03:06.074Z,7.72
2018-09-23T01:05:34.150Z,10.10
2018-09-23T01:08:02.217Z,10.60
2018-09-23T01:10:30.288Z,7.70
2018-09-23T01:12:58.458Z,8.18
2018-09-23T01:15:26.513Z,8.55
2018-09-23T01:17:54.610Z,9.57
2018-09-23T01:20:22.871Z,7.25
2018-09-23T01:22:50.943Z,7.92
2018-09-23T01:25:19.042Z,8.03
2018-09-23T01:27:47.092Z,9.23
2018-09-23T01:30:15.130Z,7.30
2018-09-23T01:32:43.461Z,7.62
2018-09-23T01:35:11.563Z,7.00
2018-09-23T01:37:39.692Z,7.58
2018-09-23T01:40:07.896Z,8.70
2018-09-23T01:42:36.166Z,9.17
2018-09-23T01:45:04.529Z,8.15
2018-09-23T01:47:32.613Z,6.60
2018-09-23T01:50:00.769Z,8.38
2018-09-23T01:52:28.871Z,8.20
2018-09-23T01:54:57.028Z,9.78
2018-09-23T01:57:25.236Z,7.20
2018-09-23T01:59:53.309Z,8.05
2018-09-23T02:02:21.437Z,6.35
2018-09-23T02:04:49.652Z,7.65
2018-09-23T02:07:17.796Z,7.50
2018-09-23T02:09:46.046Z,8.87
2018-09-23T02:12:14.340Z,9.78
2018-09-23T02:14:42.554Z,8.15
2018-09-23T02:17:10.712Z,9.80
2018-09-23T02:19:38.964Z,8.65
2018-09-23T02:22:07.099Z,7.72
2018-09-23T02:24:35.125Z,8.07
2018-09-23T02:27:03.288Z,8.73
2018-09-23T02:29:31.393Z,10.18
2018-09-23T02:31:59.455Z,9.70
2018-09-23T02:34:27.551Z,9.65
2018-09-23T02:36:55.703Z,10.05
2018-09-23T02:39:24.000Z,11.18
2018-09-23T02:41:52.053Z,10.27
2018-09-23T02:44:20.239Z,11.00
2018-09-23T02:46:48.332Z,10.82
2018-09-23T02:49:16.404Z,10.48
2018-09-23T02:51:44.567Z,10.70
2018-09-23T02:54:12.616Z,10.28
2018-09-23T02:56:40.922Z,10.95
2018-09-23T02:59:08.956Z,11.00
2018-09-23T03:01:37.067Z,11.15
2018-09-23T03:04:05.329Z,11.60
2018-09-23T03:06:33.511Z,11.45
2018-09-23T03:09:01.569Z,12.70
2018-09-23T03:11:29.777Z,10.78
2018-09-23T03:13:57.831Z,11.60
2018-09-23T03:16:25.974Z,13.80
2018-09-23T03:18:54.073Z,12.28
2018-09-23T03:21:22.267Z,11.90
2018-09-23T03:23:50.489Z,12.37
2018-09-23T03:26:18.623Z,12.63
2018-09-23T03:28:46.664Z,12.83
2018-09-23T03:31:14.724Z,11.22
2018-09-23T03:33:42.814Z,10.40
2018-09-23T03:36:11.006Z,10.58
2018-09-23T03:38:39.248Z,9.90
2018-09-23T03:41:07.327Z,9.20
2018-09-23T03:43:35.534Z,8.53
2018-09-23T03:46:03.607Z,7.40
2018-09-23T03:48:31.677Z,7.90
2018-09-23T03:50:59.882Z,7.53
2018-09-23T03:53:27.905Z,7.72
2018-09-23T03:55:56.109Z,8.08
2018-09-23T03:58:24.160Z,8.10
2018-09-23T04:00:52.358Z,8.40
2018-09-23T04:03:20.367Z,7.30
2018-09-23T04:05:48.715Z,8.33
2018-09-23T04:08:16.979Z,7.97
2018-09-23T04:10:45.369Z,7.47
2018-09-23T04:13:13.561Z,7.80
2018-09-23T04:15:41.792Z,7.75
2018-09-23T04:18:10.004Z,8.70
2018-09-23T04:20:38.129Z,8.40
2018-09-23T04:23:06.237Z,8.30
2018-09-23T04:25:34.296Z,8.43
2018-09-23T04:28:02.492Z,8.90
2018-09-23T04:30:30.661Z,9.53
2018-09-23T04:32:58.740Z,9.50
2018-09-23T04:35:26.824Z,9.15
2018-09-23T04:37:54.845Z,9.88
2018-09-23T04:40:23.053Z,9.20
2018-09-23T04:42:51.093Z,9.40
2018-09-23T04:45:19.426Z,9.73
2018-09-23T04:47:47.473Z,10.18
2018-09-23T04:50:15.555Z,8.88
2018-09-23T04:52:43.802Z,9.95
2018-09-23T04:55:11.901Z,9.73
2018-09-23T04:57:39.975Z,8.90
2018-09-23T05:00:08.254Z,9.50
2018-09-23T05:02:36.633Z,9.00
2018-09-23T05:05:04.776Z,8.80
2018-09-23T05:07:32.979Z,8.18
2018-09-23T05:10:01.217Z,7.72
2018-09-23T05:12:29.357Z,8.53
2018-09-23T05:14:57.789Z,8.10
2018-09-23T05:17:26.088Z,7.40
2018-09-23T05:19:54.270Z,6.45
2018-09-23T05:22:22.437Z,5.83
2018-09-23T05:24:50.601Z,5.37
2018-09-23T05:27:18.898Z,3.92
2018-09-23T05:29:47.089Z,3.90
2018-09-23T05:32:15.112Z,4.30
2018-09-23T05:34:43.241Z,4.00
2018-09-23T05:37:11.504Z,4.30
2018-09-23T05:39:39.575Z,3.62
2018-09-23T05:42:07.769Z,4.80
2018-09-23T05:44:36.024Z,4.80
2018-09-23T05:47:04.067Z,2.80
2018-09-23T05:49:32.269Z,1.90
2018-09-23T05:52:00.335Z,1.82
2018-09-23T05:54:28.516Z,2.30
2018-09-23T05:56:56.702Z,1.30
2018-09-23T05:59:24.695Z,2.20
2018-09-23T06:01:53.024Z,2.40
2018-09-23T06:04:21.124Z,1.30
2018-09-23T06:06:49.188Z,1.60
2018-09-23T06:09:17.436Z,1.60
2018-09-23T06:11:46.179Z,1.40
2018-09-23T06:14:14.434Z,1.60
2018-09-23T06:16:42.705Z,2.22
2018-09-23T06:19:11.051Z,1.80
2018-09-23T06:21:40.190Z,1.47
2018-09-23T06:24:08.280Z,1.70
2018-09-23T06:26:36.304Z,1.65
2018-09-23T06:29:04.668Z,1.90
2018-09-23T06:31:32.649Z,1.40
2018-09-23T06:34:00.872Z,1.40
2018-09-23T06:36:29.137Z,1.35
2018-09-23T06:38:57.205Z,2.00
2018-09-23T06:41:25.122Z,1.60
2018-09-23T06:43:53.041Z,1.12
2018-09-23T06:46:20.944Z,1.12
2018-09-23T06:48:49.133Z,1.20
2018-09-23T06:51:17.146Z,1.50
2018-09-23T06:53:45.095Z,1.20
2018-09-23T06:56:13.029Z,1.60
2018-09-23T06:58:40.945Z,1.80
2018-09-23T07:01:08.977Z,1.50
2018-09-23T07:03:36.916Z,1.25
2018-09-23T07:06:04.949Z,1.20
2018-09-23T07:08:32.847Z,1.00
2018-09-23T07:11:00.785Z,1.20
2018-09-23T07:13:28.746Z,2.20
2018-09-23T07:15:56.668Z,1.70
2018-09-23T07:18:24.685Z,1.50
2018-09-23T07:20:52.702Z,1.75
2018-09-23T07:23:20.651Z,1.40
2018-09-23T07:25:48.931Z,1.55
2018-09-23T07:28:17.943Z,1.40
2018-09-23T07:30:46.388Z,1.10
2018-09-23T07:33:14.814Z,1.00
2018-09-23T07:35:42.834Z,1.20
2018-09-23T07:38:12.910Z,1.50
2018-09-23T07:40:43.062Z,1.22
2018-09-23T07:43:13.314Z,1.30
2018-09-23T07:45:43.414Z,1.32
2018-09-23T07:48:14.479Z,1.20
2018-09-23T07:50:45.332Z,1.10
2018-09-23T07:53:16.493Z,1.10
2018-09-23T07:55:47.371Z,1.90
2018-09-23T07:58:18.536Z,1.00
2018-09-23T08:00:49.533Z,1.90
2018-09-23T08:03:20.197Z,2.40
2018-09-23T08:05:51.020Z,2.02
2018-09-23T08:08:21.995Z,1.80
2018-09-23T08:10:53.076Z,2.20
2018-09-23T08:13:24.146Z,1.20
2018-09-23T08:16:09.268Z,2.20
2018-09-23T08:18:42.794Z,1.95
2018-09-23T08:21:15.790Z,1.70
2018-09-23T08:23:48.616Z,3.15
2018-09-23T08:26:21.242Z,1.47
2018-09-23T08:28:53.107Z,1.60
2018-09-23T08:31:26.719Z,2.37
2018-09-23T08:33:59.059Z,1.90
2018-09-23T08:36:31.480Z,3.00
2018-09-23T08:39:04.126Z,2.30
2018-09-23T08:41:36.124Z,1.98
2018-09-23T08:44:09.057Z,2.20
2018-09-23T08:46:41.805Z,1.70
2018-09-23T08:49:14.745Z,2.30
2018-09-23T08:51:47.817Z,1.32
2018-09-23T08:54:21.006Z,2.70
2018-09-23T08:56:53.796Z,1.50
2018-09-23T08:59:26.241Z,2.10
2018-09-23T09:01:58.448Z,1.60
2018-09-23T09:04:31.364Z,1.42
2018-09-23T09:07:08.804Z,1.60
2018-09-23T09:09:40.837Z,2.03
2018-09-23T09:12:13.696Z,3.02
2018-09-23T09:14:45.822Z,1.67
2018-09-23T09:17:18.440Z,1.50
2018-09-23T09:19:50.858Z,1.80
2018-09-23T09:22:23.266Z,2.52
2018-09-23T09:24:55.365Z,1.55
2018-09-23T09:27:26.886Z,3.83
2018-09-23T09:30:04.865Z,3.17
2018-09-23T09:32:48.558Z,3.00
2018-09-23T09:35:29.180Z,1.75
2018-09-23T09:38:08.432Z,1.92
2018-09-23T09:40:40.691Z,1.50
2018-09-23T09:43:18.261Z,2.15
2018-09-23T09:46:04.903Z,1.60
2018-09-23T09:48:45.992Z,1.40
2018-09-23T09:51:17.662Z,2.00
2018-09-23T09:54:12.600Z,1.50
2018-09-23T09:57:01.815Z,2.40
2018-09-23T09:59:51.919Z,1.10
2018-09-23T10:02:38.740Z,2.00
2018-09-23T10:05:31.872Z,2.10
2018-09-23T10:08:18.603Z,1.90
2018-09-23T10:11:05.584Z,1.87
2018-09-23T10:13:54.213Z,2.85
2018-09-23T10:16:37.568Z,1.52
2018-09-23T10:19:26.139Z,1.50
2018-09-23T10:22:12.110Z,2.40
2018-09-23T10:25:00.009Z,2.40
2018-09-23T10:27:45.552Z,1.27
2018-09-23T10:30:33.590Z,2.30
2018-09-23T10:33:25.034Z,3.27
2018-09-23T10:39:12.121Z,3.50
2018-09-23T10:42:01.415Z,2.00
2018-09-23T10:44:47.186Z,2.33
2018-09-23T10:47:34.797Z,1.80
2018-09-23T10:50:17.214Z,2.40
2018-09-23T10:52:59.584Z,2.52
2018-09-23T10:55:43.334Z,1.40
2018-09-23T10:58:37.489Z,1.20
2018-09-23T11:01:16.242Z,2.10
2018-09-23T11:03:57.810Z,2.15
2018-09-23T11:06:38.947Z,2.20
2018-09-23T11:09:27.186Z,0.95
2018-09-23T11:12:10.884Z,1.70
2018-09-23T11:14:57.092Z,2.35
2018-09-23T11:17:32.937Z,1.10
2018-09-23T11:20:18.678Z,1.90
2018-09-23T11:23:06.196Z,1.17
2018-09-23T11:25:48.343Z,2.35
2018-09-23T11:28:35.571Z,1.20
2018-09-23T11:31:13.883Z,1.40
2018-09-23T11:34:01.581Z,2.33
2018-09-23T11:36:44.479Z,1.30
2018-09-23T11:39:29.493Z,2.40
2018-09-23T11:42:13.321Z,1.60
2018-09-23T11:45:01.352Z,3.02
2018-09-23T11:47:49.114Z,1.60
2018-09-23T11:50:38.323Z,1.60
2018-09-23T11:53:27.260Z,2.08
2018-09-23T11:56:18.679Z,3.45
2018-09-23T11:59:10.980Z,1.20
2018-09-23T12:02:00.162Z,1.95
2018-09-23T12:04:53.138Z,1.20
2018-09-23T12:07:41.760Z,1.70
2018-09-23T12:10:33.395Z,1.10
2018-09-23T12:13:27.553Z,2.40
2018-09-23T12:16:17.213Z,1.50
2018-09-23T12:19:06.187Z,2.40
2018-09-23T12:21:58.653Z,1.40
2018-09-23T12:24:39.336Z,1.30
2018-09-23T12:27:31.726Z,1.90
2018-09-23T12:30:21.665Z,2.02
2018-09-23T12:33:16.806Z,1.30
2018-09-23T12:36:05.267Z,2.97
2018-09-23T12:38:56.374Z,7.13
2018-09-23T12:41:43.253Z,1.00
2018-09-23T12:44:31.523Z,3.90
2018-09-23T12:47:16.280Z,2.95
2018-09-23T12:49:55.806Z,1.90
2018-09-23T12:52:42.101Z,1.75
2018-09-23T12:55:22.894Z,1.30
2018-09-23T12:58:09.748Z,1.60
2018-09-23T13:00:43.817Z,1.40
2018-09-23T13:03:23.069Z,1.75
2018-09-23T13:05:53.647Z,1.00
2018-09-23T13:08:21.825Z,1.50
2018-09-23T13:10:49.870Z,1.40
2018-09-23T13:13:17.983Z,1.70
2018-09-23T13:15:46.163Z,2.10
2018-09-23T13:18:14.438Z,1.80
2018-09-23T13:20:42.585Z,1.40
2018-09-23T13:23:10.804Z,1.50
2018-09-23T13:25:38.844Z,3.50
2018-09-23T13:28:07.016Z,1.60
2018-09-23T13:30:35.116Z,2.55
2018-09-23T13:33:03.156Z,2.55
2018-09-23T13:35:31.233Z,1.20
2018-09-23T13:37:59.392Z,1.50
2018-09-23T13:40:27.617Z,1.40
2018-09-23T13:42:55.668Z,0.90
2018-09-23T13:45:23.845Z,1.60
2018-09-23T13:47:51.898Z,2.53
2018-09-23T13:50:20.089Z,1.10
2018-09-23T13:52:48.268Z,1.50
2018-09-23T13:55:16.321Z,1.05
2018-09-23T13:57:44.422Z,3.20
2018-09-23T14:00:12.479Z,3.35
2018-09-23T14:02:40.708Z,2.12
2018-09-23T14:05:13.574Z,2.83
2018-09-23T14:07:46.254Z,1.47
2018-09-23T14:10:18.637Z,2.30
2018-09-23T14:12:50.312Z,1.47
2018-09-23T14:15:25.218Z,1.00
2018-09-23T14:17:53.383Z,1.70
2018-09-23T14:20:21.430Z,2.30
2018-09-23T14:22:49.636Z,2.30
2018-09-23T14:25:21.493Z,1.80
2018-09-23T14:27:52.611Z,3.20
2018-09-23T14:30:23.581Z,1.82
2018-09-23T14:32:51.744Z,2.70
2018-09-23T14:35:19.925Z,2.08
2018-09-23T14:37:47.979Z,1.80
2018-09-23T14:40:16.174Z,2.40
2018-09-23T14:42:44.230Z,1.20
2018-09-23T14:45:12.316Z,1.20
2018-09-23T14:47:40.460Z,1.00
2018-09-23T14:50:08.577Z,2.80
2018-09-23T14:52:36.723Z,1.10
2018-09-23T14:55:05.004Z,2.67
2018-09-23T14:57:33.084Z,0.70
2018-09-23T15:00:03.204Z,1.05
2018-09-23T15:02:29.708Z,1.30
2018-09-23T15:04:58.085Z,1.05
2018-09-23T15:07:26.219Z,2.10
2018-09-23T15:09:54.348Z,2.15
2018-09-23T15:12:23.466Z,1.22
2018-09-23T15:14:52.966Z,2.90
2018-09-23T15:17:21.305Z,1.37
2018-09-23T15:19:49.661Z,1.77
2018-09-23T15:22:18.366Z,2.30
2018-09-23T15:24:46.593Z,1.60
2018-09-23T15:27:14.804Z,1.20
2018-09-23T15:29:43.048Z,2.10
2018-09-23T15:32:11.722Z,1.72
2018-09-23T15:34:40.068Z,1.30
2018-09-23T15:37:08.305Z,1.30
2018-09-23T15:39:37.139Z,1.37
2018-09-23T15:42:05.494Z,3.85
2018-09-23T15:44:33.666Z,1.90
2018-09-23T15:47:01.900Z,1.50
2018-09-23T15:49:30.400Z,1.20
2018-09-23T15:51:58.717Z,1.60
2018-09-23T15:54:26.861Z,1.37
2018-09-23T15:56:54.969Z,1.50
2018-09-23T15:59:23.070Z,2.20
2018-09-23T16:01:51.443Z,2.50
2018-09-23T16:04:19.685Z,1.75
2018-09-23T16:06:48.208Z,2.12
2018-09-23T16:09:16.420Z,1.35
2018-09-23T16:11:44.624Z,2.67
2018-09-23T16:14:12.788Z,1.90
2018-09-23T16:16:40.863Z,2.10
2018-09-23T16:19:19.669Z,2.30
2018-09-23T16:21:59.713Z,2.40
2018-09-23T16:24:35.846Z,2.72
2018-09-23T16:27:13.688Z,0.90
2018-09-23T16:29:51.029Z,2.58
2018-09-23T16:32:37.214Z,1.97
2018-09-23T16:35:11.034Z,2.20
2018-09-23T16:37:49.716Z,1.40
2018-09-23T16:40:27.980Z,1.25
2018-09-23T16:43:14.473Z,1.47
2018-09-23T16:45:58.032Z,2.30
2018-09-23T16:48:30.310Z,2.20
2018-09-23T16:51:10.164Z,2.60
2018-09-23T16:53:47.326Z,3.55
2018-09-23T16:56:27.209Z,1.92
2018-09-23T16:59:11.845Z,2.77
2018-09-23T17:01:49.701Z,2.40
2018-09-23T17:04:27.352Z,1.40
2018-09-23T17:07:02.103Z,1.10
2018-09-23T17:09:39.653Z,2.33
2018-09-23T17:12:12.552Z,1.45
2018-09-23T17:14:47.213Z,2.98
2018-09-23T17:17:28.114Z,1.55
2018-09-23T17:20:12.028Z,2.90
2018-09-23T17:22:54.869Z,1.70
2018-09-23T17:25:32.814Z,2.47
2018-09-23T17:28:21.594Z,1.57
2018-09-23T17:31:06.942Z,1.00
2018-09-23T17:33:47.222Z,2.15
2018-09-23T17:36:15.628Z,1.20
2018-09-23T17:38:44.103Z,3.20
2018-09-23T17:41:13.960Z,2.15
2018-09-23T17:43:42.118Z,1.30
2018-09-23T17:46:10.532Z,2.80
2018-09-23T17:48:38.796Z,0.95
2018-09-23T17:51:12.532Z,1.92
2018-09-23T17:53:49.957Z,1.70
2018-09-23T17:56:25.741Z,1.75
2018-09-23T17:58:55.456Z,2.00
2018-09-23T18:01:32.734Z,2.77
2018-09-23T18:04:02.728Z,2.50
2018-09-23T18:06:41.526Z,2.42
2018-09-23T18:09:11.770Z,3.17
2018-09-23T18:11:41.204Z,1.80
2018-09-23T18:14:15.522Z,2.20
2018-09-23T18:16:51.682Z,2.20
2018-09-23T18:19:31.380Z,2.08
2018-09-23T18:22:18.835Z,2.17
2018-09-23T18:24:52.711Z,1.60
2018-09-23T18:27:32.240Z,2.98
2018-09-23T18:30:05.732Z,2.22
2018-09-23T18:32:45.721Z,1.62
2018-09-23T18:35:21.560Z,5.20
2018-09-23T18:37:58.784Z,1.15
2018-09-23T18:40:40.356Z,3.90
2018-09-23T18:43:17.887Z,2.70
2018-09-23T18:45:57.934Z,2.33
2018-09-23T18:48:35.911Z,2.55
2018-09-23T18:51:19.097Z,2.02
2018-09-23T18:53:58.326Z,2.30
2018-09-23T18:56:38.162Z,5.58
2018-09-23T18:59:22.437Z,3.50
2018-09-23T19:01:57.907Z,1.40
2018-09-23T19:04:46.056Z,1.70
2018-09-23T19:07:25.514Z,3.15
2018-09-23T19:09:57.745Z,2.50
2018-09-23T19:12:37.173Z,2.58
2018-09-23T19:15:20.249Z,0.80
2018-09-23T19:18:07.081Z,0.80
2018-09-23T19:20:44.590Z,2.02
2018-09-23T19:23:29.797Z,1.98
2018-09-23T19:26:05.671Z,2.00
2018-09-23T19:28:41.995Z,3.67
2018-09-23T19:31:18.314Z,1.98
2018-09-23T19:34:02.620Z,1.12
2018-09-23T19:36:40.199Z,1.87
2018-09-23T19:39:25.797Z,1.60
2018-09-23T19:42:10.403Z,1.80
2018-09-23T19:44:56.041Z,3.50
2018-09-23T19:47:47.373Z,1.92
2018-09-23T19:50:34.902Z,2.25
2018-09-23T19:53:26.943Z,1.70
2018-09-23T19:56:12.396Z,0.80
2018-09-23T19:59:00.767Z,1.60
2018-09-23T20:01:51.979Z,1.70
2018-09-23T20:04:39.684Z,0.95
2018-09-23T20:07:25.362Z,1.10
2018-09-23T20:10:12.491Z,0.90
2018-09-23T20:12:59.126Z,0.98
2018-09-23T20:15:49.043Z,1.10
2018-09-23T20:18:39.599Z,1.80
2018-09-23T20:21:30.176Z,0.75
2018-09-23T20:24:13.147Z,1.50
2018-09-23T20:26:54.394Z,1.20
2018-09-23T20:29:44.681Z,1.20
2018-09-23T20:32:30.397Z,1.70
2018-09-23T20:35:17.667Z,2.10
2018-09-23T20:37:58.141Z,0.85
2018-09-23T20:40:48.932Z,1.00
2018-09-23T20:43:40.683Z,2.00
2018-09-23T20:46:30.559Z,1.30
2018-09-23T20:49:16.117Z,1.60
2018-09-23T20:52:06.892Z,1.50
2018-09-23T20:54:58.545Z,0.90
2018-09-23T21:00:34.250Z,1.85
2018-09-23T21:03:22.659Z,0.80
2018-09-23T21:06:08.736Z,1.80
2018-09-23T21:08:43.139Z,0.80
2018-09-23T21:11:14.251Z,1.30
2018-09-23T21:14:01.662Z,1.85
2018-09-23T21:16:49.557Z,1.55
2018-09-23T21:19:37.491Z,1.10
2018-09-23T21:22:26.861Z,0.70
2018-09-23T21:25:16.048Z,0.87
2018-09-23T21:28:02.374Z,0.80
2018-09-23T21:30:55.217Z,0.80
2018-09-23T21:33:40.829Z,0.60
2018-09-23T21:36:27.854Z,0.60
2018-09-23T21:39:15.144Z,0.60
2018-09-23T21:42:07.684Z,1.20
2018-09-23T21:44:50.858Z,0.80
2018-09-23T21:47:36.788Z,0.60
2018-09-23T21:50:23.835Z,0.60
2018-09-23T21:53:16.554Z,0.60
2018-09-23T21:56:06.502Z,1.80
2018-09-23T21:58:56.324Z,1.20
2018-09-23T22:01:45.030Z,0.60
2018-09-23T22:04:32.417Z,0.80
2018-09-23T22:07:19.088Z,1.33
2018-09-23T22:10:07.594Z,1.30
2018-09-23T22:12:59.561Z,0.98
2018-09-23T22:15:48.182Z,0.60
2018-09-23T22:18:41.409Z,0.60
2018-09-23T22:21:35.267Z,0.82
2018-09-23T22:24:24.280Z,0.50
2018-09-23T22:27:20.471Z,0.60
2018-09-23T22:30:13.265Z,0.60
2018-09-23T22:33:07.280Z,0.70
2018-09-23T22:36:00.564Z,0.70
2018-09-23T22:38:56.061Z,0.90
2018-09-23T22:41:48.366Z,0.80
2018-09-23T22:44:43.547Z,1.07
2018-09-23T22:47:37.590Z,1.70
2018-09-23T22:50:31.790Z,0.80
2018-09-23T22:53:24.491Z,0.90
2018-09-23T22:56:11.227Z,0.80
2018-09-23T22:58:45.248Z,0.70
2018-09-23T23:01:21.797Z,0.60
2018-09-23T23:03:54.359Z,0.70
2018-09-23T23:06:26.701Z,0.70
2018-09-23T23:08:59.550Z,0.78
2018-09-23T23:11:31.485Z,1.40
2018-09-23T23:14:04.024Z,0.68
2018-09-23T23:16:35.791Z,0.60
2018-09-23T23:19:07.969Z,0.80
2018-09-23T23:21:39.867Z,1.50
2018-09-23T23:24:12.359Z,0.70
2018-09-23T23:26:44.924Z,1.50
2018-09-23T23:29:18.208Z,0.70
2018-09-23T23:31:50.755Z,1.40
2018-09-23T23:34:23.481Z,0.75
2018-09-23T23:36:55.798Z,0.75
2018-09-23T23:39:29.774Z,0.80
2018-09-23T23:42:02.322Z,1.60
2018-09-23T23:44:35.397Z,0.80
2018-09-23T23:47:07.180Z,0.70
2018-09-23T23:49:39.023Z,0.70
2018-09-23T23:52:10.788Z,0.65
2018-09-23T23:54:43.531Z,1.80
2018-09-23T23:57:15.311Z,1.90
2018-09-23T23:59:47.201Z,0.80
